Time;durP1;ratioP1;P1;durP2;ratioP2;P2;SDS_P1;SDS_P2;PMS_P1;PMS_P2;Temp;Humidity;BMP_temperature;BMP_pressure;BME280_temperature;BME280_humidity;BME280_pressure;Samples;Min_cycle;Max_cycle;Signal;HPM_P1;HPM_P2
2023/12/27 00:02:24;;;;;;;22.42;8.27;;;;;;;4.83;100.00;102049.00;5035262;28;20419;-57
2023/12/27 00:04:50;;;;;;;19.75;8.68;;;;;;;4.81;100.00;102051.69;5036954;28;20052;-57
2023/12/27 00:07:15;;;;;;;20.42;8.40;;;;;;;4.85;100.00;102056.88;5031853;28;20026;-57
2023/12/27 00:09:40;;;;;;;26.33;8.57;;;;;;;4.85;100.00;102048.97;5033766;28;20037;-56
2023/12/27 00:12:06;;;;;;;25.13;8.40;;;;;;;4.85;100.00;102036.66;5029923;28;20040;-57
2023/12/27 00:14:31;;;;;;;18.13;8.07;;;;;;;4.86;100.00;102041.00;5030526;28;20041;-58
2023/12/27 00:16:56;;;;;;;24.50;8.63;;;;;;;4.88;100.00;102035.69;5031791;28;20021;-57
2023/12/27 00:19:22;;;;;;;19.20;8.80;;;;;;;4.86;100.00;102035.72;5031247;28;20710;-55
2023/12/27 00:21:47;;;;;;;22.73;8.77;;;;;;;4.88;100.00;102041.81;5031487;28;20034;-54
2023/12/27 00:24:12;;;;;;;21.08;8.68;;;;;;;4.85;100.00;102044.56;5037909;28;20025;-57
2023/12/27 00:26:37;;;;;;;25.48;8.18;;;;;;;4.87;100.00;102045.34;5036380;28;20447;-57
2023/12/27 00:29:03;;;;;;;24.58;9.07;;;;;;;4.88;100.00;102046.22;5036611;28;20029;-57
2023/12/27 00:31:28;;;;;;;21.25;8.45;;;;;;;4.88;100.00;102038.31;5032773;28;20029;-55
2023/12/27 00:33:53;;;;;;;20.02;7.95;;;;;;;4.90;100.00;102041.78;5035196;28;20387;-57
2023/12/27 00:36:20;;;;;;;21.58;7.97;;;;;;;4.89;100.00;102043.53;5035848;28;20514;-58
2023/12/27 00:38:45;;;;;;;16.55;7.78;;;;;;;4.89;100.00;102040.03;5036650;28;20030;-57
2023/12/27 00:41:10;;;;;;;17.70;7.93;;;;;;;4.88;100.00;102028.66;5039052;28;20120;-57
2023/12/27 00:43:36;;;;;;;19.77;8.65;;;;;;;4.89;100.00;102035.63;5038561;28;20029;-56
2023/12/27 00:46:02;;;;;;;23.48;7.65;;;;;;;4.91;100.00;102035.56;5036781;28;20030;-57
2023/12/27 00:48:28;;;;;;;21.90;8.27;;;;;;;4.90;100.00;102036.50;5035811;28;20079;-58
2023/12/27 00:50:53;;;;;;;18.70;8.00;;;;;;;4.89;100.00;102034.78;5039554;28;20413;-57
2023/12/27 00:53:18;;;;;;;22.27;8.00;;;;;;;4.88;100.00;102041.81;5036197;28;20036;-56
2023/12/27 00:55:44;;;;;;;18.70;7.72;;;;;;;4.86;100.00;102035.72;5033151;28;21432;-57
2023/12/27 00:58:09;;;;;;;22.02;8.68;;;;;;;4.86;100.00;102034.88;5039181;28;20468;-57
2023/12/27 01:00:34;;;;;;;27.02;8.40;;;;;;;4.86;100.00;102041.00;5032008;28;20029;-57
2023/12/27 01:02:59;;;;;;;18.45;8.38;;;;;;;4.89;100.00;102034.78;5034623;28;20026;-57
2023/12/27 01:05:25;;;;;;;21.77;8.05;;;;;;;4.88;100.00;102028.66;5037002;28;20022;-57
2023/12/27 01:07:50;;;;;;;22.95;7.78;;;;;;;4.88;100.00;102031.28;5037158;28;20104;-56
2023/12/27 01:10:15;;;;;;;20.33;8.05;;;;;;;4.87;100.00;102018.19;5035002;28;20025;-56
2023/12/27 01:12:41;;;;;;;20.17;7.80;;;;;;;4.86;100.00;102029.59;5032143;28;20061;-57
2023/12/27 01:15:06;;;;;;;24.75;8.10;;;;;;;4.84;100.00;102016.50;5035413;28;20072;-56
2023/12/27 01:17:32;;;;;;;20.85;8.05;;;;;;;4.85;100.00;102012.13;5034766;28;20021;-55
2023/12/27 01:19:57;;;;;;;22.40;8.05;;;;;;;4.85;100.00;102006.84;5033621;28;20471;-57
2023/12/27 01:22:22;;;;;;;19.73;8.07;;;;;;;4.86;100.00;102005.91;5041729;28;20020;-56
2023/12/27 01:24:48;;;;;;;23.80;7.55;;;;;;;4.85;100.00;101999.81;5031014;28;20026;-57
2023/12/27 01:27:13;;;;;;;21.05;8.57;;;;;;;4.86;100.00;102004.13;5039098;28;20112;-57
2023/12/27 01:29:38;;;;;;;22.95;8.38;;;;;;;4.86;100.00;102005.91;5037274;28;20041;-56
2023/12/27 01:32:04;;;;;;;16.55;7.70;;;;;;;4.84;100.00;102002.47;5019891;28;20107;-56
2023/12/27 01:34:29;;;;;;;23.13;8.05;;;;;;;4.84;100.00;101999.84;5040223;28;20040;-57
2023/12/27 01:36:54;;;;;;;20.13;8.45;;;;;;;4.82;100.00;102003.38;5036769;28;20025;-57
2023/12/27 01:39:20;;;;;;;20.88;8.80;;;;;;;4.79;100.00;102006.13;5042675;28;20475;-54
2023/12/27 01:41:45;;;;;;;24.77;8.07;;;;;;;4.78;100.00;102009.69;5037237;28;20116;-57
2023/12/27 01:44:11;;;;;;;22.80;8.73;;;;;;;4.80;100.00;102017.53;5036614;28;20116;-56
2023/12/27 01:46:37;;;;;;;17.88;7.45;;;;;;;4.76;100.00;102016.78;5036992;28;20562;-56
2023/12/27 01:49:02;;;;;;;19.85;7.72;;;;;;;4.71;100.00;102018.66;5038330;28;20033;-56
2023/12/27 01:51:28;;;;;;;16.05;7.75;;;;;;;4.73;100.00;102024.75;5038588;28;20028;-55
2023/12/27 01:53:56;;;;;;;18.83;7.72;;;;;;;4.71;100.00;102023.09;5033952;28;20389;-55
2023/12/27 01:56:21;;;;;;;23.15;8.15;;;;;;;4.74;100.00;102028.25;5034840;28;20538;-56
2023/12/27 01:58:47;;;;;;;18.83;7.93;;;;;;;4.76;100.00;102023.78;5038235;28;20052;-56
2023/12/27 02:01:12;;;;;;;23.50;8.23;;;;;;;4.78;100.00;102014.06;5038368;28;20022;-56
2023/12/27 02:03:37;;;;;;;18.48;8.05;;;;;;;4.76;100.00;102003.63;5042792;28;20029;-56
2023/12/27 02:06:03;;;;;;;20.38;7.70;;;;;;;4.75;100.00;102003.66;5039584;28;20036;-57
2023/12/27 02:08:28;;;;;;;23.35;8.15;;;;;;;4.73;100.00;102001.06;5038807;28;20079;-56
2023/12/27 02:10:54;;;;;;;16.00;7.63;;;;;;;4.73;100.00;102000.19;5042847;28;20126;-56
2023/12/27 02:13:19;;;;;;;20.27;7.65;;;;;;;4.74;100.00;102002.78;5037209;28;20044;-56
2023/12/27 02:15:46;;;;;;;16.40;7.18;;;;;;;4.74;100.00;102005.41;5038758;28;20041;-56
2023/12/27 02:18:12;;;;;;;19.10;7.32;;;;;;;4.73;100.00;102001.06;5038465;28;20408;-57
2023/12/27 02:20:39;;;;;;;21.58;7.30;;;;;;;4.69;100.00;102004.72;5035875;28;20105;-56
2023/12/27 02:23:07;;;;;;;17.95;7.47;;;;;;;4.71;100.00;102009.91;5039504;28;20478;-57
2023/12/27 02:25:32;;;;;;;20.83;7.75;;;;;;;4.70;100.00;101998.53;5037960;28;20036;-57
2023/12/27 02:27:58;;;;;;;22.17;7.03;;;;;;;4.70;100.00;101995.06;5035243;28;20041;-57
2023/12/27 02:30:23;;;;;;;22.65;7.78;;;;;;;4.69;100.00;101983.66;5039883;28;20470;-57
2023/12/27 02:32:50;;;;;;;22.48;7.20;;;;;;;4.66;100.00;101988.16;5036189;28;20064;-58
2023/12/27 02:35:16;;;;;;;19.80;7.13;;;;;;;4.63;100.00;101982.09;5032600;28;20498;-56
2023/12/27 02:37:41;;;;;;;18.88;7.45;;;;;;;4.67;100.00;101985.47;5042073;28;20061;-57
2023/12/27 02:40:08;;;;;;;17.60;7.30;;;;;;;4.68;100.00;101976.69;5031034;28;20064;-54
2023/12/27 02:42:34;;;;;;;16.27;7.03;;;;;;;4.70;100.00;101984.53;5039189;28;20127;-56
2023/12/27 02:44:59;;;;;;;16.75;6.47;;;;;;;4.70;100.00;101971.38;5036129;28;20148;-56
2023/12/27 02:47:25;;;;;;;15.75;6.55;;;;;;;4.72;100.00;101969.53;5039992;28;20108;-57
2023/12/27 02:49:50;;;;;;;16.70;6.45;;;;;;;4.71;100.00;101963.41;5036148;28;20103;-57
2023/12/27 02:52:15;;;;;;;17.08;7.32;;;;;;;4.72;100.00;101959.88;5036556;28;20029;-57
2023/12/27 02:54:40;;;;;;;19.20;7.05;;;;;;;4.73;100.00;101952.81;5043847;28;20057;-57
2023/12/27 02:57:06;;;;;;;14.27;6.53;;;;;;;4.72;100.00;101959.03;5033190;28;20061;-58
2023/12/27 02:59:31;;;;;;;15.80;6.68;;;;;;;4.71;100.00;101950.25;5035694;28;20025;-56
2023/12/27 03:01:56;;;;;;;14.65;6.30;;;;;;;4.75;100.00;101951.03;5035927;28;20037;-57
2023/12/27 03:04:21;;;;;;;19.50;7.20;;;;;;;4.77;100.00;101947.41;5035572;28;20025;-57
2023/12/27 03:06:47;;;;;;;20.65;7.07;;;;;;;4.80;100.00;101936.78;5033324;28;20034;-56
2023/12/27 03:09:12;;;;;;;20.83;7.15;;;;;;;4.80;100.00;101931.50;5034850;28;20036;-56
2023/12/27 03:11:38;;;;;;;15.88;6.93;;;;;;;4.81;100.00;101924.47;5040046;28;20033;-58
2023/12/27 03:14:04;;;;;;;20.42;7.15;;;;;;;4.81;100.00;101927.09;5035732;28;20028;-56
2023/12/27 03:16:29;;;;;;;22.10;6.50;;;;;;;4.82;100.00;101937.56;5034579;28;20109;-55
2023/12/27 03:18:54;;;;;;;19.13;6.82;;;;;;;4.83;100.00;101917.41;5033847;28;20485;-55
2023/12/27 03:21:20;;;;;;;16.05;6.57;;;;;;;4.85;100.00;101906.81;5038847;28;20535;-56
2023/12/27 03:23:46;;;;;;;17.15;6.75;;;;;;;4.82;100.00;101900.72;5036226;28;20025;-55
2023/12/27 03:26:12;;;;;;;16.83;6.28;;;;;;;4.84;100.00;101894.56;5034962;28;20471;-55
2023/12/27 03:28:37;;;;;;;17.58;6.80;;;;;;;4.84;100.00;101903.31;5038271;28;20028;-55
2023/12/27 03:31:02;;;;;;;19.95;7.28;;;;;;;4.85;100.00;101910.31;5039674;28;20065;-56
2023/12/27 03:33:28;;;;;;;15.32;6.53;;;;;;;4.86;100.00;101913.78;5037377;28;20021;-56
2023/12/27 03:35:53;;;;;;;19.30;7.05;;;;;;;4.87;100.00;101908.47;5034979;28;20033;-57
2023/12/27 03:38:18;;;;;;;16.77;6.70;;;;;;;4.86;100.00;101901.47;5033511;28;20073;-56
2023/12/27 03:40:44;;;;;;;14.75;6.70;;;;;;;4.84;100.00;101897.19;5016443;28;20041;-56
2023/12/27 03:43:09;;;;;;;23.27;6.70;;;;;;;4.81;100.00;101887.63;5034917;28;20040;-58
2023/12/27 03:45:35;;;;;;;18.40;7.05;;;;;;;4.80;100.00;101868.34;5035994;28;20028;-56
2023/12/27 03:48:00;;;;;;;16.92;7.47;;;;;;;4.79;100.00;101877.13;5035204;28;20128;-56
2023/12/27 03:50:26;;;;;;;16.42;7.00;;;;;;;4.77;100.00;101864.97;5035755;28;20578;-57
2023/12/27 03:52:51;;;;;;;17.83;7.40;;;;;;;4.74;100.00;101858.03;5032515;28;20038;-57
2023/12/27 03:55:17;;;;;;;18.50;7.00;;;;;;;4.72;100.00;101857.22;5039609;28;20033;-57
2023/12/27 03:57:42;;;;;;;17.38;6.70;;;;;;;4.71;100.00;101852.03;5036171;28;20030;-56
2023/12/27 04:00:10;;;;;;;17.77;7.40;;;;;;;4.70;100.00;101852.94;5038499;28;20049;-58
2023/12/27 04:02:35;;;;;;;18.40;7.38;;;;;;;4.69;100.00;101843.31;5036748;28;20035;-56
2023/12/27 04:05:00;;;;;;;16.90;7.32;;;;;;;4.67;100.00;101842.53;5036090;28;20033;-56
2023/12/27 04:07:26;;;;;;;19.50;6.97;;;;;;;4.67;100.00;101837.28;5036562;28;20041;-57
2023/12/27 04:09:51;;;;;;;15.20;6.72;;;;;;;4.67;100.00;101829.38;5039912;28;20083;-57
2023/12/27 04:12:16;;;;;;;16.88;7.28;;;;;;;4.67;100.00;101832.00;5038648;28;20032;-56
2023/12/27 04:14:42;;;;;;;19.92;7.28;;;;;;;4.63;100.00;101832.09;5038791;28;20045;-57
2023/12/27 04:17:07;;;;;;;16.58;7.40;;;;;;;4.64;100.00;101827.69;5017964;28;20033;-57
2023/12/27 04:19:32;;;;;;;20.65;7.60;;;;;;;4.66;100.00;101825.84;5036984;28;20546;-58
2023/12/27 04:21:58;;;;;;;22.30;7.90;;;;;;;4.64;100.00;101820.66;5041012;28;20029;-57
2023/12/27 04:24:23;;;;;;;21.58;8.25;;;;;;;4.64;100.00;101822.44;5044713;28;20478;-56
2023/12/27 04:26:48;;;;;;;20.83;7.35;;;;;;;4.63;100.00;101820.75;5041124;28;20467;-57
2023/12/27 04:29:13;;;;;;;21.58;7.57;;;;;;;4.62;100.00;101821.63;5044468;28;20037;-57
2023/12/27 04:31:39;;;;;;;24.70;7.45;;;;;;;4.63;100.00;101821.59;5041188;28;20557;-58
2023/12/27 04:34:05;;;;;;;21.40;8.68;;;;;;;4.62;100.00;101825.13;5041839;28;20031;-58
2023/12/27 04:36:32;;;;;;;21.67;7.10;;;;;;;4.63;100.00;101824.22;5036114;28;20021;-58
2023/12/27 04:38:57;;;;;;;19.17;7.45;;;;;;;4.66;100.00;101827.63;5042164;28;20057;-57
2023/12/27 04:41:22;;;;;;;20.77;7.50;;;;;;;4.66;100.00;101825.84;5040524;28;20033;-58
2023/12/27 04:43:47;;;;;;;18.45;7.85;;;;;;;4.70;100.00;101821.38;5040790;28;20025;-57
2023/12/27 04:46:13;;;;;;;18.48;7.25;;;;;;;4.72;100.00;101817.75;5037954;28;20552;-58
2023/12/27 04:48:39;;;;;;;16.63;7.97;;;;;;;4.76;100.00;101814.13;5041317;28;20025;-57
2023/12/27 04:51:04;;;;;;;15.48;7.25;;;;;;;4.78;100.00;101814.03;5037374;28;20026;-58
2023/12/27 04:53:30;;;;;;;15.48;7.35;;;;;;;4.81;100.00;101808.66;5037347;28;20025;-58
2023/12/27 04:55:55;;;;;;;20.90;7.47;;;;;;;4.82;100.00;101799.84;5037511;28;20470;-58
2023/12/27 04:58:20;;;;;;;22.45;7.50;;;;;;;4.86;100.00;101804.06;5041515;28;20074;-59
2023/12/27 05:00:45;;;;;;;21.10;7.47;;;;;;;4.86;100.00;101795.31;5037701;28;20380;-57
2023/12/27 05:03:11;;;;;;;24.00;7.50;;;;;;;4.89;100.00;101798.69;5041452;28;20488;-57
2023/12/27 05:05:36;;;;;;;23.02;7.82;;;;;;;4.90;100.00;101796.94;5037756;28;20127;-58
2023/12/27 05:08:01;;;;;;;19.35;7.40;;;;;;;4.90;100.00;101776.75;5037889;28;20025;-58
2023/12/27 05:10:27;;;;;;;16.00;7.35;;;;;;;4.91;100.00;101775.84;5037595;28;20029;-58
2023/12/27 05:12:55;;;;;;;13.63;6.97;;;;;;;4.90;100.00;101771.47;5038179;28;20032;-57
2023/12/27 05:15:20;;;;;;;17.45;7.40;;;;;;;4.91;100.00;101774.94;5037481;28;20060;-58
2023/12/27 05:17:46;;;;;;;20.75;7.57;;;;;;;4.92;100.00;101772.25;5033373;28;20037;-58
2023/12/27 05:20:11;;;;;;;20.42;7.28;;;;;;;4.93;100.00;101768.72;5033311;28;20505;-57
2023/12/27 05:22:39;;;;;;;18.27;8.02;;;;;;;4.94;100.00;101770.41;5038821;28;20039;-59
2023/12/27 05:25:08;;;;;;;19.23;7.90;;;;;;;4.96;100.00;101763.34;5038992;28;20026;-59
2023/12/27 05:27:34;;;;;;;23.83;8.02;;;;;;;4.98;100.00;101758.03;5037287;28;20120;-57
2023/12/27 05:29:59;;;;;;;19.13;6.78;;;;;;;4.97;100.00;101767.69;5041254;28;20493;-58
2023/12/27 05:32:25;;;;;;;22.23;7.20;;;;;;;4.98;100.00;101758.03;5041544;28;20036;-59
2023/12/27 05:34:52;;;;;;;22.40;7.25;;;;;;;4.98;100.00;101747.50;5035616;28;20049;-57
2023/12/27 05:37:18;;;;;;;20.45;8.35;;;;;;;5.00;100.00;101743.88;5024224;28;20497;-58
2023/12/27 05:39:43;;;;;;;18.75;7.30;;;;;;;5.02;100.00;101740.34;5037059;28;20022;-58
2023/12/27 05:42:09;;;;;;;16.35;7.78;;;;;;;5.03;100.00;101742.91;5037045;28;20116;-58
2023/12/27 05:44:34;;;;;;;23.17;8.57;;;;;;;5.05;100.00;101745.47;5036394;28;20033;-59
2023/12/27 05:47:01;;;;;;;19.50;8.30;;;;;;;5.04;100.00;101736.69;5037288;28;20064;-59
2023/12/27 05:49:26;;;;;;;20.45;8.38;;;;;;;5.05;100.00;101737.59;5038811;28;20025;-58
2023/12/27 05:51:51;;;;;;;18.05;8.02;;;;;;;5.06;100.00;101740.13;5040428;28;20033;-59
2023/12/27 05:54:18;;;;;;;20.48;8.85;;;;;;;5.10;100.00;101735.63;5037108;28;20085;-59
2023/12/27 05:56:43;;;;;;;20.10;8.40;;;;;;;5.11;100.00;101721.53;5038768;28;20485;-61
2023/12/27 05:59:09;;;;;;;21.13;8.55;;;;;;;5.12;100.00;101718.84;5037203;28;20057;-59
2023/12/27 06:01:34;;;;;;;19.45;7.88;;;;;;;5.13;100.00;101717.94;5036687;28;20106;-59
2023/12/27 06:04:03;;;;;;;17.52;8.13;;;;;;;5.14;100.00;101718.78;5040437;28;20017;-59
2023/12/27 06:06:29;;;;;;;15.57;8.13;;;;;;;5.15;100.00;101710.81;5038767;28;20063;-58
2023/12/27 06:08:54;;;;;;;17.50;8.40;;;;;;;5.17;100.00;101708.97;5036936;28;20060;-59
2023/12/27 06:11:20;;;;;;;14.02;7.80;;;;;;;5.19;100.00;101708.91;5041420;28;20052;-58
2023/12/27 06:13:45;;;;;;;14.98;7.57;;;;;;;5.18;100.00;101700.16;5036835;28;20033;-58
2023/12/27 06:16:10;;;;;;;19.10;8.55;;;;;;;5.19;100.00;101707.13;5039634;28;20072;-58
2023/12/27 06:18:36;;;;;;;17.58;7.93;;;;;;;5.22;100.00;101698.25;5037730;28;20021;-60
2023/12/27 06:21:01;;;;;;;14.00;7.75;;;;;;;5.22;100.00;101686.88;5037551;28;20021;-59
2023/12/27 06:23:26;;;;;;;14.15;7.90;;;;;;;5.22;100.00;101695.63;5032421;28;20079;-59
2023/12/27 06:25:52;;;;;;;15.25;7.28;;;;;;;5.24;100.00;101688.50;5032776;28;20112;-59
2023/12/27 06:28:17;;;;;;;16.92;8.07;;;;;;;5.26;100.00;101681.44;5040444;28;20047;-59
2023/12/27 06:30:42;;;;;;;14.55;7.43;;;;;;;5.30;100.00;101668.97;5038213;28;20478;-59
2023/12/27 06:33:07;;;;;;;18.65;7.40;;;;;;;5.33;100.00;101669.72;5039080;28;20045;-57
2023/12/27 06:35:33;;;;;;;16.23;7.40;;;;;;;5.38;100.00;101654.56;5039230;28;20033;-59
2023/12/27 06:37:58;;;;;;;17.42;7.05;;;;;;;5.41;100.00;101655.34;5036900;28;20116;-58
2023/12/27 06:40:23;;;;;;;14.68;7.07;;;;;;;5.41;100.00;101658.84;5038863;28;20107;-58
2023/12/27 06:42:48;;;;;;;13.45;7.13;;;;;;;5.42;100.00;101660.56;5020934;28;20497;-56
2023/12/27 06:45:14;;;;;;;11.52;6.72;;;;;;;5.47;100.00;101655.09;5038918;28;20025;-56
2023/12/27 06:47:39;;;;;;;11.43;7.05;;;;;;;5.49;100.00;101643.56;5036187;28;20537;-58
2023/12/27 06:50:05;;;;;;;13.27;6.95;;;;;;;5.51;100.00;101643.50;5037215;28;20033;-58
2023/12/27 06:52:30;;;;;;;11.52;6.72;;;;;;;5.54;100.00;101640.72;5037838;28;20033;-56
2023/12/27 06:54:56;;;;;;;7.85;6.55;;;;;;;5.59;100.00;101635.28;5036579;28;20033;-57
2023/12/27 06:57:21;;;;;;;8.95;6.28;;;;;;;5.59;100.00;101633.47;5037102;28;20029;-57
2023/12/27 06:59:47;;;;;;;9.18;6.55;;;;;;;5.61;100.00;101633.41;5034973;28;20487;-58
2023/12/27 07:02:13;;;;;;;8.43;6.63;;;;;;;5.64;100.00;101626.22;5034865;28;20033;-57
2023/12/27 07:04:38;;;;;;;10.48;6.45;;;;;;;5.66;100.00;101624.41;5037483;28;20034;-58
2023/12/27 07:07:04;;;;;;;7.13;6.18;;;;;;;5.68;100.00;101626.94;5028292;28;20471;-57
2023/12/27 07:09:29;;;;;;;9.20;6.78;;;;;;;5.68;100.00;101625.19;5038943;28;20087;-56
2023/12/27 07:11:55;;;;;;;8.65;6.45;;;;;;;5.72;100.00;101634.66;5025440;28;20030;-57
2023/12/27 07:14:20;;;;;;;10.25;6.70;;;;;;;5.74;100.00;101622.31;5031529;28;20383;-57
2023/12/27 07:16:46;;;;;;;9.48;6.53;;;;;;;5.77;100.00;101620.44;5029902;28;20175;-57
2023/12/27 07:19:11;;;;;;;10.68;6.90;;;;;;;5.83;100.00;101615.75;5032448;28;20029;-58
2023/12/27 07:21:36;;;;;;;9.80;6.50;;;;;;;5.83;100.00;101620.16;5030352;28;20029;-56
2023/12/27 07:24:01;;;;;;;9.57;6.95;;;;;;;5.87;100.00;101619.09;5028208;28;20430;-57
2023/12/27 07:26:27;;;;;;;9.75;6.72;;;;;;;5.91;100.00;101618.91;5029016;28;20030;-58
2023/12/27 07:28:52;;;;;;;10.02;6.65;;;;;;;5.91;100.00;101611.00;5031647;28;20021;-59
2023/12/27 07:31:18;;;;;;;7.57;6.85;;;;;;;6.00;100.00;101609.75;5033104;28;20044;-59
2023/12/27 07:33:43;;;;;;;11.25;7.57;;;;;;;6.03;100.00;101612.25;5035571;28;20130;-60
2023/12/27 07:36:08;;;;;;;7.47;6.78;;;;;;;6.06;100.00;101609.50;5032551;28;20034;-60
2023/12/27 07:38:34;;;;;;;9.60;7.57;;;;;;;6.08;100.00;101602.34;5034102;28;20029;-59
2023/12/27 07:40:59;;;;;;;10.20;7.28;;;;;;;6.10;100.00;101604.94;5016133;28;20037;-58
2023/12/27 07:43:25;;;;;;;12.18;7.88;;;;;;;6.12;100.00;101610.97;5029605;28;20025;-60
2023/12/27 07:45:50;;;;;;;9.88;7.97;;;;;;;6.13;100.00;101609.19;5031706;28;20029;-60
2023/12/27 07:48:16;;;;;;;13.20;8.07;;;;;;;6.14;100.00;101610.91;5013635;28;20493;-60
2023/12/27 07:50:42;;;;;;;11.88;8.80;;;;;;;6.15;100.00;101610.00;5025579;28;20042;-60
2023/12/27 07:53:08;;;;;;;11.20;8.27;;;;;;;6.14;100.00;101606.47;5030217;28;20041;-59
2023/12/27 07:55:34;;;;;;;9.52;7.95;;;;;;;6.14;100.00;101606.47;5031146;28;20691;-60
2023/12/27 07:57:59;;;;;;;11.57;8.52;;;;;;;6.16;100.00;101603.78;5034238;28;20040;-59
2023/12/27 08:00:24;;;;;;;11.23;8.82;;;;;;;6.13;100.00;101599.50;5032129;28;20037;-58
2023/12/27 08:02:49;;;;;;;11.60;8.45;;;;;;;6.15;100.00;101595.03;5033098;28;20441;-59
2023/12/27 08:05:15;;;;;;;13.15;9.02;;;;;;;6.14;100.00;101600.38;5035196;28;20055;-59
2023/12/27 08:07:41;;;;;;;12.82;8.80;;;;;;;6.16;100.00;101595.88;5033935;28;20076;-60
2023/12/27 08:10:07;;;;;;;11.10;8.80;;;;;;;6.16;100.00;101593.22;5034147;28;20112;-60
2023/12/27 08:12:32;;;;;;;12.07;9.00;;;;;;;6.17;100.00;101592.31;5031283;28;20114;-59
2023/12/27 08:14:57;;;;;;;15.00;9.65;;;;;;;6.17;100.00;101587.03;5034894;28;20455;-59
2023/12/27 08:17:23;;;;;;;12.98;9.68;;;;;;;6.21;100.00;101585.94;5035874;28;20480;-59
2023/12/27 08:19:48;;;;;;;12.85;9.10;;;;;;;6.23;100.00;101586.75;5025041;28;20034;-59
2023/12/27 08:22:13;;;;;;;12.60;9.75;;;;;;;6.23;100.00;101582.34;5031964;28;20125;-58
2023/12/27 08:24:39;;;;;;;11.07;9.10;;;;;;;6.25;100.00;101571.72;5026868;28;20048;-57
2023/12/27 08:27:04;;;;;;;11.68;9.27;;;;;;;6.26;100.00;101562.84;5028289;28;20108;-59
2023/12/27 08:29:29;;;;;;;14.35;9.57;;;;;;;6.28;100.00;101563.66;5036236;28;20116;-60
2023/12/27 08:31:55;;;;;;;13.73;9.23;;;;;;;6.29;100.00;101552.16;5033407;28;20363;-59
2023/12/27 08:34:20;;;;;;;14.05;9.20;;;;;;;6.32;100.00;101549.38;5035459;28;20080;-58
2023/12/27 08:36:45;;;;;;;14.52;9.75;;;;;;;6.34;100.00;101552.78;5032521;28;20127;-58
2023/12/27 08:39:13;;;;;;;11.73;8.85;;;;;;;6.36;100.00;101550.97;5031962;28;20105;-60
2023/12/27 08:41:39;;;;;;;11.48;8.88;;;;;;;6.37;100.00;101546.53;5025716;28;20124;-59
2023/12/27 08:44:04;;;;;;;12.80;9.15;;;;;;;6.38;100.00;101542.94;5038291;28;20594;-59
2023/12/27 08:46:29;;;;;;;15.30;8.88;;;;;;;6.40;100.00;101549.03;5030118;28;20489;-59
2023/12/27 08:48:55;;;;;;;11.52;8.27;;;;;;;6.43;100.00;101543.59;5035253;28;20502;-58
2023/12/27 08:51:20;;;;;;;15.70;8.77;;;;;;;6.44;100.00;101551.41;5018402;28;20521;-59
2023/12/27 08:53:45;;;;;;;10.73;8.82;;;;;;;6.46;100.00;101530.25;5020295;28;20084;-59
2023/12/27 08:56:11;;;;;;;14.98;8.07;;;;;;;6.47;100.00;101524.88;5033761;28;20036;-58
2023/12/27 08:58:36;;;;;;;11.55;8.13;;;;;;;6.51;100.00;101530.03;5035196;28;20033;-58
2023/12/27 09:01:02;;;;;;;10.15;8.25;;;;;;;6.53;100.00;101530.78;5032457;28;20029;-58
2023/12/27 09:03:27;;;;;;;10.10;7.80;;;;;;;6.57;100.00;101527.09;5037902;28;20029;-60
2023/12/27 09:05:53;;;;;;;13.00;8.00;;;;;;;6.58;100.00;101529.66;5029653;28;20101;-59
2023/12/27 09:08:18;;;;;;;11.45;8.07;;;;;;;6.60;100.00;101526.94;5038909;28;20057;-59
2023/12/27 09:10:43;;;;;;;14.32;7.97;;;;;;;6.60;100.00;101522.50;5039751;28;20112;-59
2023/12/27 09:13:10;;;;;;;9.75;7.90;;;;;;;6.63;100.00;101532.09;5034209;28;20029;-60
2023/12/27 09:15:35;;;;;;;11.40;7.75;;;;;;;6.65;100.00;101540.78;5035396;28;20398;-58
2023/12/27 09:18:01;;;;;;;12.98;7.95;;;;;;;6.65;100.00;101519.66;5039159;28;20030;-60
2023/12/27 09:20:26;;;;;;;9.52;6.90;;;;;;;6.67;100.00;101520.44;5032040;28;20036;-58
2023/12/27 09:22:51;;;;;;;10.52;7.40;;;;;;;6.67;100.00;101516.00;5037930;28;20104;-60
2023/12/27 09:25:17;;;;;;;10.38;7.18;;;;;;;6.69;100.00;101515.91;5041446;28;20029;-60
2023/12/27 09:27:44;;;;;;;10.40;7.20;;;;;;;6.72;100.00;101507.00;5038829;28;20036;-58
2023/12/27 09:30:10;;;;;;;10.23;6.88;;;;;;;6.74;100.00;101507.78;5038901;28;20118;-59
2023/12/27 09:32:36;;;;;;;8.35;6.30;;;;;;;6.75;100.00;101505.06;5037091;28;20037;-58
2023/12/27 09:35:02;;;;;;;8.82;6.38;;;;;;;6.76;100.00;101501.50;5036889;28;20083;-59
2023/12/27 09:37:28;;;;;;;7.75;6.60;;;;;;;6.79;100.00;101497.84;5031848;28;20044;-59
2023/12/27 09:39:53;;;;;;;11.82;6.95;;;;;;;6.82;100.00;101489.78;5037277;28;20017;-59
2023/12/27 09:42:19;;;;;;;10.70;6.80;;;;;;;6.84;100.00;101495.81;5036943;28;20045;-59
2023/12/27 09:44:48;;;;;;;9.23;6.53;;;;;;;6.83;100.00;101487.06;5034420;28;20033;-61
2023/12/27 09:47:15;;;;;;;6.60;5.57;;;;;;;6.90;100.00;101481.47;5021209;28;20130;-59
2023/12/27 09:49:41;;;;;;;8.57;5.72;;;;;;;6.94;100.00;101483.00;5030747;28;20029;-57
2023/12/27 09:52:07;;;;;;;8.30;5.47;;;;;;;6.98;100.00;101487.22;5035926;28;20036;-57
2023/12/27 09:54:32;;;;;;;9.32;5.95;;;;;;;7.01;100.00;101476.47;5011894;28;20049;-57
2023/12/27 09:56:58;;;;;;;9.25;5.50;;;;;;;7.03;100.00;101480.75;5035705;28;20112;-57
2023/12/27 09:59:28;;;;;;;5.47;4.95;;;;;;;7.07;100.00;101484.09;5020372;28;20355;-57
2023/12/27 10:02:02;;;;;;;6.05;4.75;;;;;;;7.11;100.00;101467.16;5021357;28;20378;-56
2023/12/27 10:04:59;;;;;;;5.93;4.50;;;;;;;7.15;100.00;101479.25;5031773;28;20037;-57
2023/12/27 10:07:25;;;;;;;7.43;3.95;;;;;;;7.20;100.00;101484.31;5030832;28;20042;-56
2023/12/27 10:09:50;;;;;;;4.95;3.90;;;;;;;7.27;100.00;101479.56;5027624;28;20112;-57
2023/12/27 10:12:16;;;;;;;4.55;3.17;;;;;;;7.31;100.00;101478.44;5038921;28;20174;-57
2023/12/27 10:14:43;;;;;;;3.83;2.90;;;;;;;7.38;100.00;101472.78;5038976;28;20053;-55
2023/12/27 10:17:08;;;;;;;2.95;2.70;;;;;;;7.44;100.00;101476.88;5034607;28;20148;-58
2023/12/27 10:19:41;;;;;;;5.82;2.33;;;;;;;7.51;100.00;101465.06;5038878;28;20113;-57
2023/12/27 10:22:10;;;;;;;4.22;2.70;;;;;;;7.55;100.00;101466.56;5034462;28;20041;-57
2023/12/27 10:24:36;;;;;;;9.20;2.83;;;;;;;7.59;100.00;101465.50;5039049;28;20027;-58
2023/12/27 10:27:02;;;;;;;5.80;2.53;;;;;;;7.63;100.00;101455.59;5043869;28;20242;-56
2023/12/27 10:29:29;;;;;;;4.47;2.72;;;;;;;7.66;100.00;101454.56;5029806;28;20425;-57
2023/12/27 10:31:57;;;;;;;4.10;2.20;;;;;;;7.69;100.00;101443.81;5038665;28;20100;-57
2023/12/27 10:34:22;;;;;;;2.85;2.60;;;;;;;7.71;100.00;101444.59;5036011;28;20505;-57
2023/12/27 10:36:50;;;;;;;7.45;2.67;;;;;;;7.73;100.00;101442.72;5036975;28;20022;-58
2023/12/27 10:39:17;;;;;;;5.05;2.35;;;;;;;7.76;100.00;101442.53;5036484;28;20028;-56
2023/12/27 10:41:43;;;;;;;7.53;2.63;;;;;;;7.80;100.00;101425.59;5039279;28;20029;-56
2023/12/27 10:44:09;;;;;;;6.72;2.78;;;;;;;7.81;100.00;101429.06;5035338;28;20021;-57
2023/12/27 10:46:36;;;;;;;5.50;2.90;;;;;;;7.83;100.00;101427.19;5035901;28;20041;-57
2023/12/27 10:49:03;;;;;;;6.55;2.60;;;;;;;7.87;100.00;101426.09;5030833;28;20618;-58
2023/12/27 10:51:29;;;;;;;5.50;2.67;;;;;;;7.88;100.00;101428.66;5034153;28;20029;-57
2023/12/27 10:54:00;;;;;;;5.45;2.78;;;;;;;7.91;100.00;101423.19;5033873;28;20043;-56
2023/12/27 10:56:26;;;;;;;6.90;2.90;;;;;;;7.93;100.00;101413.38;5031724;28;20037;-56
2023/12/27 10:58:52;;;;;;;6.45;2.70;;;;;;;7.94;100.00;101415.09;5029927;28;20026;-56
2023/12/27 11:01:21;;;;;;;7.93;2.80;;;;;;;7.95;100.00;101408.84;5036087;28;20030;-57
2023/12/27 11:03:48;;;;;;;8.15;2.70;;;;;;;7.97;100.00;101406.13;5036598;28;20025;-56
2023/12/27 11:06:19;;;;;;;15.70;2.90;;;;;;;7.99;100.00;101395.44;5033558;28;20037;-56
2023/12/27 11:08:46;;;;;;;7.25;2.80;;;;;;;8.01;100.00;101383.84;5038169;28;20035;-58
2023/12/27 11:11:15;;;;;;;5.75;3.08;;;;;;;8.04;100.00;101382.81;5035200;28;20083;-58
2023/12/27 11:13:41;;;;;;;8.27;2.75;;;;;;;8.05;100.00;101381.88;5037873;28;20116;-56